sensor_id;sensor_type;location;lat;lon;timestamp;temperature;humidity
66271;DHT22;53063;39.614;8.814;2022-11-20T00:02:21;10.90;99.90
66271;DHT22;53063;39.614;8.814;2022-11-20T00:04:47;10.90;99.90
66271;DHT22;53063;39.614;8.814;2022-11-20T00:07:13;10.90;99.90
66271;DHT22;53063;39.614;8.814;2022-11-20T00:09:39;10.90;99.90
66271;DHT22;53063;39.614;8.814;2022-11-20T00:12:05;11.10;99.90
66271;DHT22;53063;39.614;8.814;2022-11-20T00:14:31;11.10;99.90
66271;DHT22;53063;39.614;8.814;2022-11-20T00:16:58;11.10;99.90
66271;DHT22;53063;39.614;8.814;2022-11-20T00:19:24;11.00;99.90
66271;DHT22;53063;39.614;8.814;2022-11-20T00:21:50;11.00;99.90
66271;DHT22;53063;39.614;8.814;2022-11-20T00:24:21;11.00;99.90
66271;DHT22;53063;39.614;8.814;2022-11-20T00:26:47;11.10;99.90
66271;DHT22;53063;39.614;8.814;2022-11-20T00:29:13;11.20;99.90
66271;DHT22;53063;39.614;8.814;2022-11-20T00:31:39;11.20;99.90
66271;DHT22;53063;39.614;8.814;2022-11-20T00:34:05;11.00;99.90
66271;DHT22;53063;39.614;8.814;2022-11-20T00:36:33;11.00;99.90
66271;DHT22;53063;39.614;8.814;2022-11-20T00:38:59;11.20;99.90
66271;DHT22;53063;39.614;8.814;2022-11-20T00:41:27;11.30;99.90
66271;DHT22;53063;39.614;8.814;2022-11-20T00:43:54;11.30;99.90
66271;DHT22;53063;39.614;8.814;2022-11-20T00:46:22;11.30;99.90
66271;DHT22;53063;39.614;8.814;2022-11-20T00:48:49;11.40;99.90
66271;DHT22;53063;39.614;8.814;2022-11-20T00:51:18;11.30;99.90
66271;DHT22;53063;39.614;8.814;2022-11-20T00:53:44;11.10;99.90
66271;DHT22;53063;39.614;8.814;2022-11-20T00:56:15;11.10;99.90
66271;DHT22;53063;39.614;8.814;2022-11-20T00:58:43;11.10;99.90
66271;DHT22;53063;39.614;8.814;2022-11-20T01:01:12;11.10;99.90
66271;DHT22;53063;39.614;8.814;2022-11-20T01:03:40;11.20;99.90
66271;DHT22;53063;39.614;8.814;2022-11-20T01:06:14;11.20;99.90
66271;DHT22;53063;39.614;8.814;2022-11-20T01:08:40;11.20;99.90
66271;DHT22;53063;39.614;8.814;2022-11-20T01:11:10;11.30;99.90
66271;DHT22;53063;39.614;8.814;2022-11-20T01:13:37;11.30;99.90
66271;DHT22;53063;39.614;8.814;2022-11-20T01:18:53;11.10;99.90
66271;DHT22;53063;39.614;8.814;2022-11-20T01:21:22;11.10;99.90
66271;DHT22;53063;39.614;8.814;2022-11-20T01:23:49;11.10;99.90
66271;DHT22;53063;39.614;8.814;2022-11-20T01:26:18;11.20;99.90
66271;DHT22;53063;39.614;8.814;2022-11-20T01:28:45;11.20;99.90
66271;DHT22;53063;39.614;8.814;2022-11-20T01:33:42;11.20;99.90
66271;DHT22;53063;39.614;8.814;2022-11-20T01:36:09;11.20;99.90
66271;DHT22;53063;39.614;8.814;2022-11-20T01:38:35;11.20;99.90
66271;DHT22;53063;39.614;8.814;2022-11-20T01:41:02;11.30;99.90
66271;DHT22;53063;39.614;8.814;2022-11-20T01:43:28;11.30;99.90
66271;DHT22;53063;39.614;8.814;2022-11-20T01:46:18;11.30;99.90
66271;DHT22;53063;39.614;8.814;2022-11-20T01:49:26;11.30;99.90
66271;DHT22;53063;39.614;8.814;2022-11-20T01:51:56;11.20;99.90
66271;DHT22;53063;39.614;8.814;2022-11-20T01:54:43;11.30;99.90
66271;DHT22;53063;39.614;8.814;2022-11-20T01:57:12;11.30;99.90
66271;DHT22;53063;39.614;8.814;2022-11-20T01:59:43;11.30;99.90
66271;DHT22;53063;39.614;8.814;2022-11-20T02:02:10;11.40;99.90
66271;DHT22;53063;39.614;8.814;2022-11-20T02:04:36;11.40;99.90
66271;DHT22;53063;39.614;8.814;2022-11-20T02:07:04;11.40;99.90
66271;DHT22;53063;39.614;8.814;2022-11-20T02:09:31;11.50;99.90
66271;DHT22;53063;39.614;8.814;2022-11-20T02:11:57;11.30;99.90
66271;DHT22;53063;39.614;8.814;2022-11-20T02:14:25;11.30;99.90
66271;DHT22;53063;39.614;8.814;2022-11-20T02:16:52;11.30;99.90
66271;DHT22;53063;39.614;8.814;2022-11-20T02:19:37;11.40;99.90
66271;DHT22;53063;39.614;8.814;2022-11-20T02:22:26;11.30;99.90
66271;DHT22;53063;39.614;8.814;2022-11-20T02:24:54;11.30;99.90
66271;DHT22;53063;39.614;8.814;2022-11-20T02:27:20;11.30;99.90
66271;DHT22;53063;39.614;8.814;2022-11-20T02:30:16;11.20;99.90
66271;DHT22;53063;39.614;8.814;2022-11-20T02:32:42;11.20;99.90
66271;DHT22;53063;39.614;8.814;2022-11-20T02:35:09;11.00;99.90
66271;DHT22;53063;39.614;8.814;2022-11-20T02:37:38;11.00;99.90
66271;DHT22;53063;39.614;8.814;2022-11-20T02:40:06;11.20;99.90
66271;DHT22;53063;39.614;8.814;2022-11-20T02:42:32;11.20;99.90
66271;DHT22;53063;39.614;8.814;2022-11-20T02:44:58;11.10;99.90
66271;DHT22;53063;39.614;8.814;2022-11-20T02:47:24;11.00;99.90
66271;DHT22;53063;39.614;8.814;2022-11-20T02:49:50;10.90;99.90
66271;DHT22;53063;39.614;8.814;2022-11-20T02:52:16;10.90;99.90
66271;DHT22;53063;39.614;8.814;2022-11-20T02:54:42;10.90;99.90
66271;DHT22;53063;39.614;8.814;2022-11-20T02:57:08;10.90;99.90
66271;DHT22;53063;39.614;8.814;2022-11-20T02:59:34;11.00;99.90
66271;DHT22;53063;39.614;8.814;2022-11-20T03:02:00;11.00;99.90
66271;DHT22;53063;39.614;8.814;2022-11-20T03:04:26;10.90;99.90
66271;DHT22;53063;39.614;8.814;2022-11-20T03:06:52;10.80;99.90
66271;DHT22;53063;39.614;8.814;2022-11-20T03:09:18;10.70;99.90
66271;DHT22;53063;39.614;8.814;2022-11-20T03:11:44;10.60;99.90
66271;DHT22;53063;39.614;8.814;2022-11-20T03:14:10;10.60;99.90
66271;DHT22;53063;39.614;8.814;2022-11-20T03:16:36;10.40;99.90
66271;DHT22;53063;39.614;8.814;2022-11-20T03:19:02;10.30;99.90
66271;DHT22;53063;39.614;8.814;2022-11-20T03:21:28;10.40;99.90
66271;DHT22;53063;39.614;8.814;2022-11-20T03:23:54;10.20;99.90
66271;DHT22;53063;39.614;8.814;2022-11-20T03:26:23;10.10;99.90
66271;DHT22;53063;39.614;8.814;2022-11-20T03:28:52;10.00;99.90
66271;DHT22;53063;39.614;8.814;2022-11-20T03:31:21;9.90;99.90
66271;DHT22;53063;39.614;8.814;2022-11-20T03:33:47;9.90;99.90
66271;DHT22;53063;39.614;8.814;2022-11-20T03:36:15;10.00;99.90
66271;DHT22;53063;39.614;8.814;2022-11-20T03:38:41;10.10;99.90
66271;DHT22;53063;39.614;8.814;2022-11-20T03:41:15;10.20;99.90
66271;DHT22;53063;39.614;8.814;2022-11-20T03:43:41;10.20;99.90
66271;DHT22;53063;39.614;8.814;2022-11-20T03:46:07;10.20;99.90
66271;DHT22;53063;39.614;8.814;2022-11-20T03:48:33;10.30;99.90
66271;DHT22;53063;39.614;8.814;2022-11-20T03:51:20;10.30;99.90
66271;DHT22;53063;39.614;8.814;2022-11-20T03:53:48;10.30;99.90
66271;DHT22;53063;39.614;8.814;2022-11-20T03:56:15;10.20;99.90
66271;DHT22;53063;39.614;8.814;2022-11-20T03:58:42;10.30;99.90
66271;DHT22;53063;39.614;8.814;2022-11-20T04:01:10;10.30;99.90
66271;DHT22;53063;39.614;8.814;2022-11-20T04:03:38;10.20;99.90
66271;DHT22;53063;39.614;8.814;2022-11-20T04:06:07;10.20;99.90
66271;DHT22;53063;39.614;8.814;2022-11-20T04:08:34;10.10;99.90
66271;DHT22;53063;39.614;8.814;2022-11-20T04:11:12;10.10;99.90
66271;DHT22;53063;39.614;8.814;2022-11-20T04:13:39;10.00;99.90
66271;DHT22;53063;39.614;8.814;2022-11-20T04:16:06;10.00;99.90
66271;DHT22;53063;39.614;8.814;2022-11-20T04:18:32;10.20;99.90
66271;DHT22;53063;39.614;8.814;2022-11-20T04:20:59;10.30;99.90
66271;DHT22;53063;39.614;8.814;2022-11-20T04:23:26;10.20;99.90
66271;DHT22;53063;39.614;8.814;2022-11-20T04:25:52;10.20;99.90
66271;DHT22;53063;39.614;8.814;2022-11-20T04:28:18;10.40;99.90
66271;DHT22;53063;39.614;8.814;2022-11-20T04:30:44;10.40;99.90
66271;DHT22;53063;39.614;8.814;2022-11-20T04:33:10;10.50;99.90
66271;DHT22;53063;39.614;8.814;2022-11-20T04:35:37;10.50;99.90
66271;DHT22;53063;39.614;8.814;2022-11-20T04:38:04;10.50;99.90
66271;DHT22;53063;39.614;8.814;2022-11-20T04:40:30;10.40;99.90
66271;DHT22;53063;39.614;8.814;2022-11-20T04:42:56;10.40;99.90
66271;DHT22;53063;39.614;8.814;2022-11-20T04:45:23;10.50;99.90
66271;DHT22;53063;39.614;8.814;2022-11-20T04:47:49;10.50;99.90
66271;DHT22;53063;39.614;8.814;2022-11-20T04:50:15;10.50;99.90
66271;DHT22;53063;39.614;8.814;2022-11-20T04:52:41;10.50;99.90
66271;DHT22;53063;39.614;8.814;2022-11-20T04:55:07;10.40;99.90
66271;DHT22;53063;39.614;8.814;2022-11-20T04:57:33;10.30;99.90
66271;DHT22;53063;39.614;8.814;2022-11-20T04:59:59;10.10;99.90
66271;DHT22;53063;39.614;8.814;2022-11-20T05:02:25;10.00;99.90
66271;DHT22;53063;39.614;8.814;2022-11-20T05:04:51;9.90;99.90
66271;DHT22;53063;39.614;8.814;2022-11-20T05:07:17;9.80;99.90
66271;DHT22;53063;39.614;8.814;2022-11-20T05:09:43;9.80;99.90
66271;DHT22;53063;39.614;8.814;2022-11-20T05:12:09;9.80;99.90
66271;DHT22;53063;39.614;8.814;2022-11-20T05:14:35;9.70;99.90
66271;DHT22;53063;39.614;8.814;2022-11-20T05:17:01;9.90;99.90
66271;DHT22;53063;39.614;8.814;2022-11-20T05:19:27;10.10;99.90
66271;DHT22;53063;39.614;8.814;2022-11-20T05:21:53;10.20;99.90
66271;DHT22;53063;39.614;8.814;2022-11-20T05:24:19;10.30;99.90
66271;DHT22;53063;39.614;8.814;2022-11-20T05:26:45;10.30;99.90
66271;DHT22;53063;39.614;8.814;2022-11-20T05:29:11;10.30;99.90
66271;DHT22;53063;39.614;8.814;2022-11-20T05:31:39;10.20;99.90
66271;DHT22;53063;39.614;8.814;2022-11-20T05:34:06;10.20;99.90
66271;DHT22;53063;39.614;8.814;2022-11-20T05:36:32;10.10;99.90
66271;DHT22;53063;39.614;8.814;2022-11-20T05:38:58;10.10;99.90
66271;DHT22;53063;39.614;8.814;2022-11-20T05:41:24;10.00;99.90
66271;DHT22;53063;39.614;8.814;2022-11-20T05:43:51;10.10;99.90
66271;DHT22;53063;39.614;8.814;2022-11-20T05:46:21;10.10;99.90
66271;DHT22;53063;39.614;8.814;2022-11-20T05:48:47;10.00;99.90
66271;DHT22;53063;39.614;8.814;2022-11-20T05:51:15;9.90;99.90
66271;DHT22;53063;39.614;8.814;2022-11-20T05:53:42;10.00;99.90
66271;DHT22;53063;39.614;8.814;2022-11-20T05:56:14;10.00;99.90
66271;DHT22;53063;39.614;8.814;2022-11-20T05:58:41;10.00;99.90
66271;DHT22;53063;39.614;8.814;2022-11-20T06:01:21;10.00;99.90
66271;DHT22;53063;39.614;8.814;2022-11-20T06:03:48;10.10;99.90
66271;DHT22;53063;39.614;8.814;2022-11-20T06:06:16;10.00;99.90
66271;DHT22;53063;39.614;8.814;2022-11-20T06:08:44;10.10;99.90
66271;DHT22;53063;39.614;8.814;2022-11-20T06:11:11;10.20;99.90
66271;DHT22;53063;39.614;8.814;2022-11-20T06:13:38;10.10;99.90
66271;DHT22;53063;39.614;8.814;2022-11-20T06:16:05;10.10;99.90
66271;DHT22;53063;39.614;8.814;2022-11-20T06:18:31;10.10;99.90
66271;DHT22;53063;39.614;8.814;2022-11-20T06:21:09;10.10;99.90
66271;DHT22;53063;39.614;8.814;2022-11-20T06:23:36;10.20;99.90
66271;DHT22;53063;39.614;8.814;2022-11-20T06:26:07;10.20;99.90
66271;DHT22;53063;39.614;8.814;2022-11-20T06:28:33;10.10;99.90
66271;DHT22;53063;39.614;8.814;2022-11-20T06:30:59;10.00;99.90
66271;DHT22;53063;39.614;8.814;2022-11-20T06:33:25;10.00;99.90
66271;DHT22;53063;39.614;8.814;2022-11-20T06:35:51;9.80;99.90
66271;DHT22;53063;39.614;8.814;2022-11-20T06:38:17;9.60;99.90
66271;DHT22;53063;39.614;8.814;2022-11-20T06:40:43;9.50;99.90
66271;DHT22;53063;39.614;8.814;2022-11-20T06:43:10;9.50;99.90
66271;DHT22;53063;39.614;8.814;2022-11-20T06:45:36;9.60;99.90
66271;DHT22;53063;39.614;8.814;2022-11-20T06:48:02;9.50;99.90
66271;DHT22;53063;39.614;8.814;2022-11-20T06:50:28;9.50;99.90
66271;DHT22;53063;39.614;8.814;2022-11-20T06:52:54;9.80;99.90
66271;DHT22;53063;39.614;8.814;2022-11-20T06:55:21;10.10;99.90
66271;DHT22;53063;39.614;8.814;2022-11-20T06:57:47;10.20;99.90
66271;DHT22;53063;39.614;8.814;2022-11-20T07:00:13;10.10;99.90
66271;DHT22;53063;39.614;8.814;2022-11-20T07:02:39;10.20;99.90
66271;DHT22;53063;39.614;8.814;2022-11-20T07:05:05;10.40;99.90
66271;DHT22;53063;39.614;8.814;2022-11-20T07:07:31;10.90;99.90
66271;DHT22;53063;39.614;8.814;2022-11-20T07:09:57;11.20;99.90
66271;DHT22;53063;39.614;8.814;2022-11-20T07:12:23;11.10;99.90
66271;DHT22;53063;39.614;8.814;2022-11-20T07:14:49;11.20;99.90
66271;DHT22;53063;39.614;8.814;2022-11-20T07:17:15;11.20;99.90
66271;DHT22;53063;39.614;8.814;2022-11-20T07:19:41;11.50;99.90
66271;DHT22;53063;39.614;8.814;2022-11-20T07:22:08;11.60;99.90
66271;DHT22;53063;39.614;8.814;2022-11-20T07:24:34;11.90;99.90
66271;DHT22;53063;39.614;8.814;2022-11-20T07:27:00;12.50;99.90
66271;DHT22;53063;39.614;8.814;2022-11-20T07:29:26;12.50;99.90
66271;DHT22;53063;39.614;8.814;2022-11-20T07:31:52;12.20;99.90
66271;DHT22;53063;39.614;8.814;2022-11-20T07:34:18;12.60;99.90
66271;DHT22;53063;39.614;8.814;2022-11-20T07:36:45;12.60;99.90
66271;DHT22;53063;39.614;8.814;2022-11-20T07:39:11;12.50;99.90
66271;DHT22;53063;39.614;8.814;2022-11-20T07:41:37;12.50;99.90
66271;DHT22;53063;39.614;8.814;2022-11-20T07:44:03;12.80;99.90
66271;DHT22;53063;39.614;8.814;2022-11-20T07:46:29;13.60;99.90
66271;DHT22;53063;39.614;8.814;2022-11-20T07:48:55;15.20;99.90
66271;DHT22;53063;39.614;8.814;2022-11-20T07:51:36;15.40;89.80
66271;DHT22;53063;39.614;8.814;2022-11-20T07:54:02;14.80;87.40
66271;DHT22;53063;39.614;8.814;2022-11-20T07:56:28;15.20;87.40
66271;DHT22;53063;39.614;8.814;2022-11-20T07:58:54;14.60;86.70
66271;DHT22;53063;39.614;8.814;2022-11-20T08:01:20;15.20;88.00
66271;DHT22;53063;39.614;8.814;2022-11-20T08:03:45;14.50;86.90
66271;DHT22;53063;39.614;8.814;2022-11-20T08:06:11;13.90;88.40
66271;DHT22;53063;39.614;8.814;2022-11-20T08:08:37;13.60;90.80
66271;DHT22;53063;39.614;8.814;2022-11-20T08:11:05;13.50;92.40
66271;DHT22;53063;39.614;8.814;2022-11-20T08:13:49;13.50;92.80
66271;DHT22;53063;39.614;8.814;2022-11-20T08:16:34;13.60;93.10
66271;DHT22;53063;39.614;8.814;2022-11-20T08:19:00;13.80;93.10
66271;DHT22;53063;39.614;8.814;2022-11-20T08:21:25;13.90;92.40
66271;DHT22;53063;39.614;8.814;2022-11-20T08:23:51;13.80;92.10
66271;DHT22;53063;39.614;8.814;2022-11-20T08:26:17;13.70;92.70
66271;DHT22;53063;39.614;8.814;2022-11-20T08:28:43;13.60;93.10
66271;DHT22;53063;39.614;8.814;2022-11-20T08:31:09;13.50;92.70
66271;DHT22;53063;39.614;8.814;2022-11-20T08:33:35;13.60;93.60
66271;DHT22;53063;39.614;8.814;2022-11-20T08:36:03;13.60;93.90
66271;DHT22;53063;39.614;8.814;2022-11-20T08:38:29;13.70;94.10
66271;DHT22;53063;39.614;8.814;2022-11-20T08:40:59;13.60;94.20
66271;DHT22;53063;39.614;8.814;2022-11-20T08:43:44;13.70;94.50
66271;DHT22;53063;39.614;8.814;2022-11-20T08:46:10;13.80;94.80
66271;DHT22;53063;39.614;8.814;2022-11-20T08:48:36;13.90;94.40
66271;DHT22;53063;39.614;8.814;2022-11-20T08:51:02;14.00;93.60
66271;DHT22;53063;39.614;8.814;2022-11-20T08:53:28;18.00;86.30
66271;DHT22;53063;39.614;8.814;2022-11-20T08:55:56;21.20;67.10
66271;DHT22;53063;39.614;8.814;2022-11-20T08:58:22;22.90;56.50
66271;DHT22;53063;39.614;8.814;2022-11-20T09:00:48;23.60;53.10
66271;DHT22;53063;39.614;8.814;2022-11-20T09:03:14;22.20;53.70
66271;DHT22;53063;39.614;8.814;2022-11-20T09:05:40;20.00;57.20
66271;DHT22;53063;39.614;8.814;2022-11-20T09:08:06;19.40;62.70
66271;DHT22;53063;39.614;8.814;2022-11-20T09:10:32;18.80;61.00
66271;DHT22;53063;39.614;8.814;2022-11-20T09:12:58;18.40;65.40
66271;DHT22;53063;39.614;8.814;2022-11-20T09:15:25;19.70;59.20
66271;DHT22;53063;39.614;8.814;2022-11-20T09:17:59;17.50;64.10
66271;DHT22;53063;39.614;8.814;2022-11-20T09:20:26;16.60;68.10
66271;DHT22;53063;39.614;8.814;2022-11-20T09:22:52;16.90;68.60
66271;DHT22;53063;39.614;8.814;2022-11-20T09:25:18;16.10;71.50
66271;DHT22;53063;39.614;8.814;2022-11-20T09:27:44;18.80;66.20
66271;DHT22;53063;39.614;8.814;2022-11-20T09:30:12;18.90;64.90
66271;DHT22;53063;39.614;8.814;2022-11-20T09:32:39;21.90;58.30
66271;DHT22;53063;39.614;8.814;2022-11-20T09:35:05;23.30;52.90
66271;DHT22;53063;39.614;8.814;2022-11-20T09:37:32;19.00;58.90
66271;DHT22;53063;39.614;8.814;2022-11-20T09:39:58;18.70;61.90
66271;DHT22;53063;39.614;8.814;2022-11-20T09:45:24;18.50;60.30
66271;DHT22;53063;39.614;8.814;2022-11-20T09:48:26;19.20;62.60
66271;DHT22;53063;39.614;8.814;2022-11-20T09:54:07;23.10;51.10
66271;DHT22;53063;39.614;8.814;2022-11-20T09:56:39;24.00;48.80
66271;DHT22;53063;39.614;8.814;2022-11-20T09:59:08;23.10;50.50
66271;DHT22;53063;39.614;8.814;2022-11-20T10:01:40;23.90;48.80
66271;DHT22;53063;39.614;8.814;2022-11-20T10:04:17;25.00;46.50
66271;DHT22;53063;39.614;8.814;2022-11-20T10:06:51;23.90;46.40
66271;DHT22;53063;39.614;8.814;2022-11-20T10:09:24;22.20;51.60
66271;DHT22;53063;39.614;8.814;2022-11-20T10:12:00;20.00;55.50
66271;DHT22;53063;39.614;8.814;2022-11-20T10:20:20;22.80;50.00
66271;DHT22;53063;39.614;8.814;2022-11-20T10:22:58;23.70;48.30
66271;DHT22;53063;39.614;8.814;2022-11-20T10:26:00;25.10;48.40
66271;DHT22;53063;39.614;8.814;2022-11-20T10:28:52;22.00;48.80
66271;DHT22;53063;39.614;8.814;2022-11-20T10:34:03;18.40;62.10
66271;DHT22;53063;39.614;8.814;2022-11-20T10:36:38;18.80;61.10
66271;DHT22;53063;39.614;8.814;2022-11-20T10:39:14;18.40;61.10
66271;DHT22;53063;39.614;8.814;2022-11-20T10:41:43;17.70;61.90
66271;DHT22;53063;39.614;8.814;2022-11-20T10:44:17;17.30;63.00
66271;DHT22;53063;39.614;8.814;2022-11-20T10:47:04;16.90;65.00
66271;DHT22;53063;39.614;8.814;2022-11-20T10:49:32;16.60;65.40
66271;DHT22;53063;39.614;8.814;2022-11-20T10:55:03;16.30;68.60
66271;DHT22;53063;39.614;8.814;2022-11-20T10:57:54;16.20;68.80
66271;DHT22;53063;39.614;8.814;2022-11-20T11:00:24;16.20;69.30
66271;DHT22;53063;39.614;8.814;2022-11-20T11:02:54;16.50;69.70
66271;DHT22;53063;39.614;8.814;2022-11-20T11:05:37;16.80;68.90
66271;DHT22;53063;39.614;8.814;2022-11-20T11:08:12;16.50;68.50
66271;DHT22;53063;39.614;8.814;2022-11-20T11:10:51;16.10;70.20
66271;DHT22;53063;39.614;8.814;2022-11-20T11:13:27;17.50;68.10
66271;DHT22;53063;39.614;8.814;2022-11-20T11:15:53;17.60;66.50
66271;DHT22;53063;39.614;8.814;2022-11-20T11:18:31;17.50;66.80
66271;DHT22;53063;39.614;8.814;2022-11-20T11:21:00;17.10;66.80
66271;DHT22;53063;39.614;8.814;2022-11-20T11:23:34;16.50;67.70
66271;DHT22;53063;39.614;8.814;2022-11-20T11:26:04;16.30;68.40
66271;DHT22;53063;39.614;8.814;2022-11-20T11:28:30;16.00;70.80
66271;DHT22;53063;39.614;8.814;2022-11-20T11:30:57;15.90;72.10
66271;DHT22;53063;39.614;8.814;2022-11-20T11:33:29;15.80;71.60
66271;DHT22;53063;39.614;8.814;2022-11-20T11:35:58;15.70;71.90
66271;DHT22;53063;39.614;8.814;2022-11-20T11:38:41;16.00;72.90
66271;DHT22;53063;39.614;8.814;2022-11-20T11:41:14;16.90;71.30
66271;DHT22;53063;39.614;8.814;2022-11-20T11:43:51;17.70;69.70
66271;DHT22;53063;39.614;8.814;2022-11-20T11:46:36;17.40;68.70
66271;DHT22;53063;39.614;8.814;2022-11-20T11:54:55;16.90;73.00
66271;DHT22;53063;39.614;8.814;2022-11-20T12:02:44;15.20;82.20
66271;DHT22;53063;39.614;8.814;2022-11-20T12:05:26;14.90;84.80
66271;DHT22;53063;39.614;8.814;2022-11-20T12:10:40;15.80;89.80
66271;DHT22;53063;39.614;8.814;2022-11-20T12:15:49;17.10;83.80
66271;DHT22;53063;39.614;8.814;2022-11-20T12:18:20;17.60;81.10
66271;DHT22;53063;39.614;8.814;2022-11-20T12:21:10;17.50;78.30
66271;DHT22;53063;39.614;8.814;2022-11-20T12:26:54;17.50;78.30
66271;DHT22;53063;39.614;8.814;2022-11-20T12:43:24;18.00;72.10
66271;DHT22;53063;39.614;8.814;2022-11-20T12:46:25;17.70;72.00
66271;DHT22;53063;39.614;8.814;2022-11-20T12:52:04;18.10;71.10
66271;DHT22;53063;39.614;8.814;2022-11-20T12:57:08;17.60;69.80
66271;DHT22;53063;39.614;8.814;2022-11-20T13:07:35;16.70;75.10
66271;DHT22;53063;39.614;8.814;2022-11-20T13:10:03;16.90;75.30
66271;DHT22;53063;39.614;8.814;2022-11-20T13:15:08;17.40;77.70
66271;DHT22;53063;39.614;8.814;2022-11-20T13:18:00;17.40;76.90
66271;DHT22;53063;39.614;8.814;2022-11-20T13:20:27;17.00;76.40
66271;DHT22;53063;39.614;8.814;2022-11-20T13:22:57;16.50;78.60
66271;DHT22;53063;39.614;8.814;2022-11-20T13:25:34;16.30;80.30
66271;DHT22;53063;39.614;8.814;2022-11-20T13:30:49;15.80;82.60
66271;DHT22;53063;39.614;8.814;2022-11-20T13:38:27;15.60;83.30
66271;DHT22;53063;39.614;8.814;2022-11-20T13:40:59;15.80;83.70
66271;DHT22;53063;39.614;8.814;2022-11-20T13:43:47;16.70;83.80
66271;DHT22;53063;39.614;8.814;2022-11-20T13:46:13;17.50;80.60
66271;DHT22;53063;39.614;8.814;2022-11-20T13:48:45;17.80;77.10
66271;DHT22;53063;39.614;8.814;2022-11-20T14:02:19;16.40;75.30
66271;DHT22;53063;39.614;8.814;2022-11-20T14:04:51;16.40;75.80
66271;DHT22;53063;39.614;8.814;2022-11-20T14:07:19;16.30;75.40
66271;DHT22;53063;39.614;8.814;2022-11-20T14:09:53;16.40;77.40
66271;DHT22;53063;39.614;8.814;2022-11-20T14:12:23;16.60;78.40
66271;DHT22;53063;39.614;8.814;2022-11-20T14:14:54;18.60;72.30
66271;DHT22;53063;39.614;8.814;2022-11-20T14:19:51;16.80;77.10
66271;DHT22;53063;39.614;8.814;2022-11-20T14:22:22;16.60;78.40
66271;DHT22;53063;39.614;8.814;2022-11-20T14:25:22;16.40;79.40
66271;DHT22;53063;39.614;8.814;2022-11-20T14:27:58;16.20;80.10
66271;DHT22;53063;39.614;8.814;2022-11-20T14:30:26;16.10;78.70
66271;DHT22;53063;39.614;8.814;2022-11-20T14:33:00;16.10;79.60
66271;DHT22;53063;39.614;8.814;2022-11-20T14:35:29;16.40;79.00
66271;DHT22;53063;39.614;8.814;2022-11-20T14:37:56;16.50;79.20
66271;DHT22;53063;39.614;8.814;2022-11-20T14:40:30;16.20;79.10
66271;DHT22;53063;39.614;8.814;2022-11-20T14:42:58;16.10;81.60
66271;DHT22;53063;39.614;8.814;2022-11-20T14:45:26;16.10;82.70
66271;DHT22;53063;39.614;8.814;2022-11-20T14:47:55;15.80;84.80
66271;DHT22;53063;39.614;8.814;2022-11-20T14:50:28;15.40;88.00
66271;DHT22;53063;39.614;8.814;2022-11-20T14:52:58;15.10;91.10
66271;DHT22;53063;39.614;8.814;2022-11-20T14:55:36;14.90;92.30
66271;DHT22;53063;39.614;8.814;2022-11-20T14:58:04;14.70;94.00
66271;DHT22;53063;39.614;8.814;2022-11-20T15:00:32;14.60;95.00
66271;DHT22;53063;39.614;8.814;2022-11-20T15:02:59;14.70;94.70
66271;DHT22;53063;39.614;8.814;2022-11-20T15:05:43;14.60;93.50
66271;DHT22;53063;39.614;8.814;2022-11-20T15:08:13;14.50;94.00
66271;DHT22;53063;39.614;8.814;2022-11-20T15:10:46;14.30;93.90
66271;DHT22;53063;39.614;8.814;2022-11-20T15:15:50;14.20;94.50
66271;DHT22;53063;39.614;8.814;2022-11-20T15:18:31;14.30;94.00
66271;DHT22;53063;39.614;8.814;2022-11-20T15:21:01;14.20;94.10
66271;DHT22;53063;39.614;8.814;2022-11-20T15:23:28;14.20;93.00
66271;DHT22;53063;39.614;8.814;2022-11-20T15:25:55;14.10;93.30
66271;DHT22;53063;39.614;8.814;2022-11-20T15:28:42;14.00;93.70
66271;DHT22;53063;39.614;8.814;2022-11-20T15:31:12;13.90;95.10
66271;DHT22;53063;39.614;8.814;2022-11-20T15:33:38;13.80;96.20
66271;DHT22;53063;39.614;8.814;2022-11-20T15:36:04;13.70;96.90
66271;DHT22;53063;39.614;8.814;2022-11-20T15:38:30;13.60;97.40
66271;DHT22;53063;39.614;8.814;2022-11-20T15:40:57;13.60;97.10
66271;DHT22;53063;39.614;8.814;2022-11-20T15:43:23;13.60;97.50
66271;DHT22;53063;39.614;8.814;2022-11-20T15:45:50;13.60;97.70
66271;DHT22;53063;39.614;8.814;2022-11-20T15:48:22;13.60;98.00
66271;DHT22;53063;39.614;8.814;2022-11-20T15:53:29;13.70;97.80
66271;DHT22;53063;39.614;8.814;2022-11-20T15:55:55;13.70;97.60
66271;DHT22;53063;39.614;8.814;2022-11-20T15:58:21;13.70;97.30
66271;DHT22;53063;39.614;8.814;2022-11-20T16:00:49;13.60;97.00
66271;DHT22;53063;39.614;8.814;2022-11-20T16:03:17;13.50;97.40
66271;DHT22;53063;39.614;8.814;2022-11-20T16:05:43;13.50;97.80
66271;DHT22;53063;39.614;8.814;2022-11-20T16:08:09;13.50;98.10
66271;DHT22;53063;39.614;8.814;2022-11-20T16:10:35;13.50;98.00
66271;DHT22;53063;39.614;8.814;2022-11-20T16:13:02;13.40;97.60
66271;DHT22;53063;39.614;8.814;2022-11-20T16:15:51;13.40;98.20
66271;DHT22;53063;39.614;8.814;2022-11-20T16:18:19;13.30;98.10
66271;DHT22;53063;39.614;8.814;2022-11-20T16:20:48;13.40;98.60
66271;DHT22;53063;39.614;8.814;2022-11-20T16:23:14;13.50;98.10
66271;DHT22;53063;39.614;8.814;2022-11-20T16:25:41;13.50;97.70
66271;DHT22;53063;39.614;8.814;2022-11-20T16:28:07;13.50;96.20
66271;DHT22;53063;39.614;8.814;2022-11-20T16:30:34;13.50;96.00
66271;DHT22;53063;39.614;8.814;2022-11-20T16:33:01;13.50;94.90
66271;DHT22;53063;39.614;8.814;2022-11-20T16:35:28;13.40;94.60
66271;DHT22;53063;39.614;8.814;2022-11-20T16:37:55;13.40;94.50
66271;DHT22;53063;39.614;8.814;2022-11-20T16:40:22;13.40;95.30
66271;DHT22;53063;39.614;8.814;2022-11-20T16:42:48;13.20;95.00
66271;DHT22;53063;39.614;8.814;2022-11-20T16:45:14;13.30;95.90
66271;DHT22;53063;39.614;8.814;2022-11-20T16:47:41;13.30;96.20
66271;DHT22;53063;39.614;8.814;2022-11-20T16:50:07;13.30;96.70
66271;DHT22;53063;39.614;8.814;2022-11-20T16:52:34;13.20;97.40
66271;DHT22;53063;39.614;8.814;2022-11-20T16:55:00;13.20;99.10
66271;DHT22;53063;39.614;8.814;2022-11-20T16:57:30;13.20;99.90
66271;DHT22;53063;39.614;8.814;2022-11-20T16:59:58;13.20;99.90
66271;DHT22;53063;39.614;8.814;2022-11-20T17:02:25;13.10;99.70
66271;DHT22;53063;39.614;8.814;2022-11-20T17:04:51;13.10;99.60
66271;DHT22;53063;39.614;8.814;2022-11-20T17:07:18;13.10;99.80
66271;DHT22;53063;39.614;8.814;2022-11-20T17:09:44;13.00;99.80
66271;DHT22;53063;39.614;8.814;2022-11-20T17:12:10;13.00;99.70
66271;DHT22;53063;39.614;8.814;2022-11-20T17:14:36;12.90;99.80
66271;DHT22;53063;39.614;8.814;2022-11-20T17:17:02;13.00;99.90
66271;DHT22;53063;39.614;8.814;2022-11-20T17:19:28;12.90;99.30
66271;DHT22;53063;39.614;8.814;2022-11-20T17:21:54;13.00;99.20
66271;DHT22;53063;39.614;8.814;2022-11-20T17:24:20;12.80;98.80
66271;DHT22;53063;39.614;8.814;2022-11-20T17:26:47;12.80;98.10